Time;durP1;ratioP1;P1;durP2;ratioP2;P2;SDS_P1;SDS_P2;PMS_P1;PMS_P2;Temp;Humidity;BMP_temperature;BMP_pressure;BME280_temperature;BME280_humidity;BME280_pressure;Samples;Min_cycle;Max_cycle;Signal;HPM_P1;HPM_P2
2023/03/28 00:01:08;;;;;;;3.78;3.47;;;;;;;7.83;76.35;98030.38;5133629;27;20027;-74
2023/03/28 00:03:35;;;;;;;2.97;2.75;;;;;;;7.99;76.56;98061.91;5136080;27;20038;-73
2023/03/28 00:06:04;;;;;;;3.90;3.45;;;;;;;7.96;76.82;98062.63;5134442;27;20054;-74
2023/03/28 00:08:29;;;;;;;4.18;3.78;;;;;;;7.93;76.72;98063.28;5134540;27;20477;-74
2023/03/28 00:11:10;;;;;;;3.75;3.45;;;;;;;7.90;76.52;98066.78;5135161;27;20015;-74
2023/03/28 00:13:36;;;;;;;3.90;3.60;;;;;;;7.89;76.42;98069.91;5134329;27;20037;-73
2023/03/28 00:16:07;;;;;;;3.22;2.95;;;;;;;7.81;76.70;98068.88;5134497;27;20516;-74
2023/03/28 00:18:37;;;;;;;3.55;3.25;;;;;;;7.81;77.02;98077.25;5134359;27;20039;-74
2023/03/28 00:21:18;;;;;;;2.78;2.58;;;;;;;7.80;76.37;98078.41;5135507;27;20020;-73
2023/03/28 00:23:44;;;;;;;3.60;3.30;;;;;;;7.66;77.56;98082.38;5135362;27;20058;-74
2023/03/28 00:26:11;;;;;;;3.20;2.90;;;;;;;7.67;77.61;98084.00;5135490;27;20019;-73
2023/03/28 00:28:38;;;;;;;3.70;3.40;;;;;;;7.64;78.38;98089.44;5134171;27;20176;-74
2023/03/28 00:31:05;;;;;;;2.80;2.60;;;;;;;7.61;77.40;98077.06;5133399;27;20023;-73
2023/03/28 00:33:31;;;;;;;2.47;2.28;;;;;;;7.66;76.55;98087.94;5135011;27;20493;-73
2023/03/28 00:35:56;;;;;;;2.75;2.55;;;;;;;7.59;77.90;98090.47;5132941;27;20038;-74
2023/03/28 00:38:22;;;;;;;3.10;2.53;;;;;;;7.50;77.27;98093.38;5134964;27;20034;-73
2023/03/28 00:40:47;;;;;;;2.40;2.20;;;;;;;7.44;77.50;98092.81;5128204;27;20036;-74
2023/03/28 00:43:13;;;;;;;3.10;2.88;;;;;;;7.43;78.28;98105.09;5133664;27;20031;-74
2023/03/28 00:45:40;;;;;;;3.10;2.75;;;;;;;7.26;78.26;98094.22;5133948;27;20398;-74
2023/03/28 00:48:12;;;;;;;2.92;2.72;;;;;;;7.25;79.15;98090.59;5133735;27;20034;-74
2023/03/28 00:50:45;;;;;;;3.03;2.80;;;;;;;7.19;78.46;98111.47;5133679;27;20110;-73
2023/03/28 00:53:25;;;;;;;3.30;3.00;;;;;;;6.99;77.53;98111.19;5133355;27;20035;-73
2023/03/28 00:56:13;;;;;;;3.55;3.25;;;;;;;6.79;75.92;98090.66;5133702;27;20031;-73
2023/03/28 00:58:41;;;;;;;3.95;3.53;;;;;;;6.63;75.05;98120.22;5133398;27;20118;-73
2023/03/28 01:01:10;;;;;;;5.15;4.40;;;;;;;6.51;75.03;98107.13;5134681;27;20292;-73
2023/03/28 01:03:40;;;;;;;5.22;4.65;;;;;;;6.41;75.14;98131.38;5131484;27;20122;-73
2023/03/28 01:06:08;;;;;;;4.75;4.20;;;;;;;6.35;72.84;98127.19;5133377;27;20107;-72
2023/03/28 01:08:40;;;;;;;4.70;4.20;;;;;;;6.27;73.23;98119.75;5133441;27;20030;-73
2023/03/28 01:11:06;;;;;;;4.35;3.95;;;;;;;6.12;72.40;98146.13;5134113;27;20026;-72
2023/03/28 01:13:36;;;;;;;4.40;4.00;;;;;;;6.07;72.30;98138.03;5133927;27;20027;-73
2023/03/28 01:16:02;;;;;;;;;;;;;;;6.06;72.55;98141.97;5135221;27;20027;-73
2023/03/28 01:18:29;;;;;;;3.45;3.15;;;;;;;5.97;70.19;98148.34;5134509;27;19971;-73
2023/03/28 01:21:06;;;;;;;3.90;3.50;;;;;;;5.92;70.34;98158.81;5133266;27;20026;-73
2023/03/28 01:23:52;;;;;;;4.13;3.67;;;;;;;5.82;71.02;98171.13;5133686;27;20027;-74
2023/03/28 01:26:45;;;;;;;3.65;3.35;;;;;;;5.76;71.38;98181.59;5135062;27;20034;-73
2023/03/28 01:29:31;;;;;;;3.70;3.40;;;;;;;5.70;68.70;98169.06;5134932;27;20050;-73
2023/03/28 01:32:35;;;;;;;4.95;4.18;;;;;;;5.65;70.02;98178.38;5120520;27;20386;-73
2023/03/28 01:35:13;;;;;;;4.03;3.63;;;;;;;5.59;70.44;98185.28;5134696;27;20055;-73
2023/03/28 01:38:21;;;;;;;3.85;3.30;;;;;;;5.62;66.79;98179.06;5134479;27;20072;-73
2023/03/28 01:41:08;;;;;;;3.03;2.78;;;;;;;5.61;67.01;98188.53;5084079;27;20536;-73
2023/03/28 01:44:03;;;;;;;2.97;2.67;;;;;;;5.56;66.08;98186.75;5113468;28;20500;-73
2023/03/28 01:46:35;;;;;;;2.75;2.55;;;;;;;5.51;65.89;98183.34;5122186;27;20054;-73
2023/03/28 01:49:15;;;;;;;3.50;2.65;;;;;;;5.47;63.95;98192.34;5132538;27;20493;-73
2023/03/28 01:52:06;;;;;;;2.92;2.38;;;;;;;5.40;64.62;98210.63;5132289;27;20027;-73
2023/03/28 01:54:57;;;;;;;5.72;2.25;;;;;;;5.33;64.04;98206.41;5124119;27;20039;-73
2023/03/28 01:57:33;;;;;;;2.45;2.25;;;;;;;5.29;65.05;98218.47;5133612;27;20026;-73
2023/03/28 01:59:58;;;;;;;2.60;2.40;;;;;;;5.21;64.49;98225.69;5133814;27;20027;-73
2023/03/28 02:02:35;;;;;;;3.53;2.53;;;;;;;5.12;65.05;98222.13;5131738;27;20076;-73
2023/03/28 02:05:06;;;;;;;3.35;3.05;;;;;;;5.11;65.15;98228.81;5133677;27;20398;-74
2023/03/28 02:07:32;;;;;;;2.90;2.53;;;;;;;5.07;64.95;98206.50;5133731;27;20503;-74
2023/03/28 02:10:04;;;;;;;3.47;3.13;;;;;;;4.98;64.64;98247.25;5132117;27;20027;-73
2023/03/28 02:12:35;;;;;;;3.25;2.95;;;;;;;4.90;65.32;98246.94;5133062;27;20102;-73
2023/03/28 02:15:04;;;;;;;2.60;2.40;;;;;;;4.83;65.54;98241.09;5131223;27;20023;-73
2023/03/28 02:17:34;;;;;;;4.10;3.50;;;;;;;4.80;65.03;98260.31;5132958;27;20122;-73
2023/03/28 02:20:13;;;;;;;3.22;2.92;;;;;;;4.79;65.21;98259.47;5132081;27;20398;-74
2023/03/28 02:22:51;;;;;;;3.63;3.33;;;;;;;4.71;65.27;98247.25;5132892;27;20023;-73
2023/03/28 02:25:17;;;;;;;3.90;3.50;;;;;;;4.63;65.00;98243.34;5133256;27;20087;-73
2023/03/28 02:27:46;;;;;;;5.32;3.45;;;;;;;4.64;65.16;98250.53;5133078;27;20034;-73
2023/03/28 02:30:12;;;;;;;4.70;4.25;;;;;;;4.60;64.92;98240.41;5133096;27;20043;-73
2023/03/28 02:32:39;;;;;;;6.60;3.75;;;;;;;4.52;65.57;98255.06;5131041;27;20424;-73
2023/03/28 02:35:06;;;;;;;5.22;3.83;;;;;;;4.50;65.14;98272.03;5130902;27;20023;-73
2023/03/28 02:38:01;;;;;;;4.82;4.05;;;;;;;4.43;65.12;98272.50;5133023;27;20516;-74
2023/03/28 02:40:46;;;;;;;5.93;4.85;;;;;;;4.30;66.35;98277.03;5131389;27;20472;-74
2023/03/28 02:43:30;;;;;;;9.27;4.57;;;;;;;4.29;65.79;98286.47;5132620;27;20035;-73
2023/03/28 02:46:06;;;;;;;7.13;4.65;;;;;;;4.28;65.85;98268.22;5132861;27;20098;-73
2023/03/28 02:49:02;;;;;;;5.57;4.80;;;;;;;4.21;65.32;98274.25;5132748;27;20023;-73
2023/03/28 02:51:57;;;;;;;7.63;4.57;;;;;;;4.14;65.47;98290.50;5132684;27;20019;-74
2023/03/28 02:54:46;;;;;;;7.85;4.68;;;;;;;4.14;65.32;98273.09;5091968;28;20044;-73
2023/03/28 02:57:23;;;;;;;5.75;5.18;;;;;;;4.07;66.50;98302.03;5111258;27;20130;-74
2023/03/28 02:59:58;;;;;;;4.72;4.32;;;;;;;4.10;65.00;98317.19;5131872;27;20075;-73
2023/03/28 03:02:24;;;;;;;8.57;5.25;;;;;;;4.03;64.71;98294.69;5132489;27;20023;-73
2023/03/28 03:04:50;;;;;;;4.60;4.18;;;;;;;4.00;64.85;98296.16;5132557;27;20098;-74
2023/03/28 03:07:17;;;;;;;4.88;4.47;;;;;;;3.96;65.13;98300.69;5132479;27;20033;-76
2023/03/28 03:09:44;;;;;;;4.85;4.45;;;;;;;3.90;64.04;98318.59;5131124;27;20389;-73
2023/03/28 03:12:11;;;;;;;5.00;4.55;;;;;;;3.91;63.57;98309.16;5132328;27;20025;-75
2023/03/28 03:14:37;;;;;;;6.20;4.28;;;;;;;3.81;65.34;98332.38;5132347;27;20027;-74
2023/03/28 03:17:04;;;;;;;5.65;4.93;;;;;;;3.86;64.83;98323.09;5132488;27;20030;-74
2023/03/28 03:19:31;;;;;;;5.63;4.95;;;;;;;3.79;64.84;98343.75;5132032;27;20049;-74
2023/03/28 03:21:57;;;;;;;6.13;4.38;;;;;;;3.79;64.28;98346.53;5130931;27;20046;-74
2023/03/28 03:24:23;;;;;;;5.43;4.93;;;;;;;3.74;65.18;98354.97;5132166;27;20027;-73
2023/03/28 03:26:49;;;;;;;8.55;4.60;;;;;;;3.78;65.25;98366.19;5130201;27;20019;-73
2023/03/28 03:29:15;;;;;;;4.90;4.45;;;;;;;3.78;64.64;98361.50;5130545;27;20513;-75
2023/03/28 03:31:40;;;;;;;5.20;4.45;;;;;;;3.76;63.87;98372.06;5132033;27;20537;-73
2023/03/28 03:34:06;;;;;;;7.68;4.88;;;;;;;3.74;64.66;98363.25;5131873;27;20025;-73
2023/03/28 03:36:32;;;;;;;5.53;4.80;;;;;;;3.79;63.77;98362.28;5130795;28;20031;-78
2023/03/28 03:38:57;;;;;;;4.93;4.53;;;;;;;3.77;63.17;98379.22;5131814;27;20037;-78
2023/03/28 03:41:23;;;;;;;5.72;5.07;;;;;;;3.72;63.59;98384.88;5131710;27;20043;-78
2023/03/28 03:43:48;;;;;;;7.95;4.82;;;;;;;3.76;62.72;98376.75;5129731;27;20574;-77
2023/03/28 03:46:14;;;;;;;6.57;4.47;;;;;;;3.75;63.83;98380.66;5131944;28;20102;-78
2023/03/28 03:48:39;;;;;;;5.57;4.97;;;;;;;3.72;63.96;98395.94;5130272;28;20497;-79
2023/03/28 03:51:05;;;;;;;11.35;6.15;;;;;;;3.66;64.06;98405.50;5131871;27;20072;-77
2023/03/28 03:53:33;;;;;;;8.35;6.35;;;;;;;3.65;64.12;98398.34;5132004;27;20031;-79
2023/03/28 03:56:00;;;;;;;8.90;5.97;;;;;;;3.64;64.65;98416.88;5130622;28;20405;-77
2023/03/28 03:58:26;;;;;;;8.00;5.97;;;;;;;3.62;64.90;98418.31;5130370;27;20027;-80
2023/03/28 04:00:52;;;;;;;7.30;5.60;;;;;;;3.65;64.12;98407.44;5131795;27;20386;-81
2023/03/28 04:03:18;;;;;;;7.10;5.40;;;;;;;3.68;64.18;98416.22;5131857;27;20119;-80
2023/03/28 04:05:43;;;;;;;7.10;5.68;;;;;;;3.69;64.24;98421.47;5131710;28;20027;-79
2023/03/28 04:08:09;;;;;;;8.02;6.38;;;;;;;3.69;64.28;98429.75;5130215;28;20454;-81
2023/03/28 04:10:34;;;;;;;8.45;4.95;;;;;;;3.66;64.61;98444.22;5131790;27;20443;-80
2023/03/28 04:13:00;;;;;;;7.32;4.70;;;;;;;3.64;64.21;98435.44;5131749;27;20428;-81
2023/03/28 04:15:25;;;;;;;5.45;4.93;;;;;;;3.62;64.25;98437.66;5129416;28;20501;-81
2023/03/28 04:17:55;;;;;;;11.10;5.63;;;;;;;3.59;63.66;98455.72;5130366;28;20015;-80
2023/03/28 04:20:24;;;;;;;5.90;4.95;;;;;;;3.59;63.60;98464.03;5131116;27;20027;-80
2023/03/28 04:22:50;;;;;;;7.10;6.40;;;;;;;3.56;63.80;98485.94;5131703;27;20019;-81
2023/03/28 04:25:16;;;;;;;9.15;7.13;;;;;;;3.52;64.10;98491.28;5130281;28;20027;-81
2023/03/28 04:27:47;;;;;;;8.57;5.63;;;;;;;3.57;63.61;98493.13;5130391;28;20432;-82
2023/03/28 04:30:16;;;;;;;7.57;5.43;;;;;;;3.55;64.24;98492.59;5129567;28;20180;-81
2023/03/28 04:32:43;;;;;;;7.43;5.20;;;;;;;3.50;64.63;98499.06;5130677;28;20101;-82
2023/03/28 04:35:10;;;;;;;5.78;4.93;;;;;;;3.52;63.52;98485.75;5130221;28;20474;-81
2023/03/28 04:37:36;;;;;;;7.78;5.03;;;;;;;3.59;63.49;98497.22;5130261;27;20103;-81
2023/03/28 04:40:09;;;;;;;6.38;5.43;;;;;;;3.57;63.60;98509.69;5134666;27;20517;-81
2023/03/28 04:42:36;;;;;;;9.05;5.28;;;;;;;3.55;63.34;98520.25;5135295;27;20178;-77
2023/03/28 04:45:03;;;;;;;10.25;6.25;;;;;;;3.52;63.76;98524.47;5132475;27;20405;-82
2023/03/28 04:47:29;;;;;;;8.25;4.93;;;;;;;3.58;62.64;98525.16;5134593;27;20030;-81
2023/03/28 04:49:54;;;;;;;4.97;4.40;;;;;;;3.59;62.27;98540.63;5133437;27;20023;-82
2023/03/28 04:52:20;;;;;;;7.43;4.82;;;;;;;3.55;62.51;98534.09;5135024;27;20059;-81
2023/03/28 04:54:45;;;;;;;4.78;4.28;;;;;;;3.58;62.33;98550.06;5133744;27;20319;-81
2023/03/28 04:57:11;;;;;;;4.28;3.88;;;;;;;3.60;62.93;98556.09;5134410;27;20027;-81
2023/03/28 04:59:36;;;;;;;5.68;5.10;;;;;;;3.70;62.79;98553.09;5131591;27;20027;-81
2023/03/28 05:02:02;;;;;;;4.72;4.25;;;;;;;3.84;61.80;98564.13;5133222;27;20019;-80
2023/03/28 05:04:27;;;;;;;9.52;4.80;;;;;;;3.89;62.44;98550.16;5133735;27;20031;-81
2023/03/28 05:06:53;;;;;;;7.32;4.80;;;;;;;3.95;62.16;98581.28;5134753;27;20019;-81
2023/03/28 05:09:18;;;;;;;8.70;6.22;;;;;;;3.94;62.13;98585.19;5132182;27;20495;-80
2023/03/28 05:11:44;;;;;;;8.07;5.28;;;;;;;3.91;63.03;98589.41;5133179;27;20106;-81
2023/03/28 05:14:10;;;;;;;6.25;3.90;;;;;;;3.94;61.63;98593.50;5134615;27;20031;-80
2023/03/28 05:16:36;;;;;;;5.78;3.72;;;;;;;4.02;61.74;98612.13;5133064;27;20566;-80
2023/03/28 05:19:01;;;;;;;4.72;3.78;;;;;;;3.99;60.42;98587.03;5132622;27;20405;-81
2023/03/28 05:21:27;;;;;;;4.53;3.58;;;;;;;4.11;60.69;98606.66;5131957;27;20060;-80
2023/03/28 05:23:52;;;;;;;4.35;3.47;;;;;;;4.15;61.21;98601.31;5131596;27;20027;-76
2023/03/28 05:26:18;;;;;;;3.80;3.28;;;;;;;4.01;61.58;98607.72;5130752;27;20037;-78
2023/03/28 05:28:44;;;;;;;5.32;3.83;;;;;;;4.13;61.42;98609.94;5134427;27;20096;-77
2023/03/28 05:31:10;;;;;;;5.13;3.20;;;;;;;4.21;60.06;98608.34;5134181;27;20084;-76
2023/03/28 05:33:35;;;;;;;5.13;3.20;;;;;;;4.25;58.52;98605.78;5133325;27;20023;-77
2023/03/28 05:36:01;;;;;;;5.07;3.17;;;;;;;4.40;59.26;98599.06;5133465;27;20066;-73
2023/03/28 05:38:32;;;;;;;3.53;3.22;;;;;;;4.33;58.47;98602.28;5131820;27;20061;-76
2023/03/28 05:40:57;;;;;;;;;;;;;;;4.47;58.47;98611.31;5135043;27;20035;-73
2023/03/28 05:43:23;;;;;;;3.38;2.40;;;;;;;4.34;57.09;98620.53;5127121;27;20468;-77
2023/03/28 05:45:49;;;;;;;5.07;3.17;;;;;;;4.10;58.08;98615.25;5111183;27;20080;-74
2023/03/28 05:48:14;;;;;;;5.80;2.97;;;;;;;4.14;58.08;98619.06;5131690;27;20110;-75
2023/03/28 05:50:40;;;;;;;3.30;3.00;;;;;;;4.22;59.27;98621.06;5130648;27;20068;-72
2023/03/28 05:53:06;;;;;;;2.97;2.67;;;;;;;4.05;58.61;98599.63;5132187;27;20034;-75
2023/03/28 05:55:31;;;;;;;2.95;2.20;;;;;;;4.18;57.46;98612.59;5129132;27;20088;-76
2023/03/28 05:57:57;;;;;;;3.83;3.38;;;;;;;4.35;57.83;98611.91;5131599;27;20043;-77
2023/03/28 06:00:23;;;;;;;3.83;2.92;;;;;;;4.45;57.21;98623.84;5127715;27;20046;-72
2023/03/28 06:02:53;;;;;;;5.93;3.08;;;;;;;4.52;58.81;98631.72;5128662;27;20108;-75
2023/03/28 06:05:19;;;;;;;;;;;;;;;4.45;56.99;98640.47;5129866;27;20062;-76
2023/03/28 06:07:45;;;;;;;6.05;2.78;;;;;;;4.37;57.80;98658.66;5128750;27;20007;-72
2023/03/28 06:10:12;;;;;;;4.32;3.25;;;;;;;4.38;58.27;98656.72;5131143;27;20027;-73
2023/03/28 06:12:39;;;;;;;6.00;3.72;;;;;;;4.43;58.19;98657.41;5130741;27;20398;-71
2023/03/28 06:15:05;;;;;;;5.25;3.95;;;;;;;4.49;57.28;98649.78;5130896;27;20034;-73
2023/03/28 06:17:31;;;;;;;4.47;3.70;;;;;;;4.63;56.01;98655.25;5130034;27;20034;-72
2023/03/28 06:19:56;;;;;;;3.90;3.50;;;;;;;4.71;57.01;98656.47;5127271;27;20023;-71
2023/03/28 06:22:22;;;;;;;3.30;3.00;;;;;;;4.73;56.30;98673.59;5128998;27;20393;-70
2023/03/28 06:24:47;;;;;;;4.43;2.95;;;;;;;4.82;57.44;98666.13;5123647;27;20035;-71
2023/03/28 06:27:16;;;;;;;5.32;3.67;;;;;;;4.78;55.30;98670.69;5124453;27;20030;-71
2023/03/28 06:29:41;;;;;;;8.05;4.45;;;;;;;4.76;55.25;98681.25;5125171;27;20105;-74
2023/03/28 06:32:07;;;;;;;8.20;4.97;;;;;;;4.88;55.89;98675.97;5118125;27;20400;-74
2023/03/28 06:34:32;;;;;;;7.85;5.28;;;;;;;4.84;54.81;98683.28;5130363;27;20456;-73
2023/03/28 06:36:59;;;;;;;7.95;4.97;;;;;;;4.80;53.30;98675.91;5129893;27;20034;-72
2023/03/28 06:39:27;;;;;;;7.07;4.70;;;;;;;4.63;51.95;98671.88;5129985;27;20088;-73
2023/03/28 06:41:53;;;;;;;8.35;5.68;;;;;;;4.59;53.03;98665.34;5127770;27;20381;-72
2023/03/28 06:44:18;;;;;;;7.63;6.10;;;;;;;4.56;52.55;98683.41;5129716;27;20093;-71
2023/03/28 06:46:44;;;;;;;8.10;6.10;;;;;;;4.64;54.29;98676.28;5121985;27;20106;-70
2023/03/28 06:49:09;;;;;;;6.38;5.50;;;;;;;4.54;54.76;98679.31;5119686;27;20401;-72
2023/03/28 06:51:35;;;;;;;6.22;5.63;;;;;;;4.49;52.61;98699.66;5129847;27;20100;-72
2023/03/28 06:54:00;;;;;;;6.93;5.90;;;;;;;4.47;54.11;98701.91;5128539;27;20434;-77
2023/03/28 06:56:26;;;;;;;9.77;6.95;;;;;;;4.47;53.19;98702.72;5128644;27;20110;-72
2023/03/28 06:58:51;;;;;;;13.70;6.60;;;;;;;4.45;52.77;98709.69;5127707;27;20123;-70
2023/03/28 07:01:17;;;;;;;14.32;7.00;;;;;;;4.51;55.30;98719.53;5127696;27;20030;-70
2023/03/28 07:03:42;;;;;;;9.15;5.32;;;;;;;4.55;54.27;98733.59;5128475;27;20031;-78
2023/03/28 07:06:09;;;;;;;8.68;6.50;;;;;;;4.47;55.22;98713.78;5127775;27;20042;-71
2023/03/28 07:08:35;;;;;;;16.05;7.40;;;;;;;4.57;54.31;98712.72;5128211;27;20436;-71
2023/03/28 07:11:01;;;;;;;10.30;6.65;;;;;;;4.58;53.64;98719.09;5129367;27;20080;-74
2023/03/28 07:13:26;;;;;;;9.90;6.57;;;;;;;4.55;54.61;98711.44;5129071;27;20046;-71
2023/03/28 07:16:18;;;;;;;7.95;5.55;;;;;;;4.58;54.74;98705.25;5126327;27;20029;-75
2023/03/28 07:18:44;;;;;;;9.27;5.68;;;;;;;4.54;53.68;98724.44;5120045;27;20044;-75
2023/03/28 07:21:15;;;;;;;7.30;5.82;;;;;;;4.59;54.83;98715.19;5122974;27;20071;-79
2023/03/28 07:23:41;;;;;;;5.88;5.32;;;;;;;4.63;53.87;98717.03;5128214;27;20035;-75
2023/03/28 07:26:09;;;;;;;8.63;6.38;;;;;;;4.67;53.83;98700.59;5126601;27;20534;-79
2023/03/28 07:28:38;;;;;;;7.97;6.35;;;;;;;4.77;53.06;98700.34;5127060;27;20082;-77
2023/03/28 07:31:07;;;;;;;8.05;6.22;;;;;;;4.69;53.97;98687.25;5128641;27;20035;-79
2023/03/28 07:33:35;;;;;;;7.25;5.88;;;;;;;4.87;54.66;98710.34;5128760;27;20031;-75
2023/03/28 07:36:08;;;;;;;6.75;5.95;;;;;;;4.81;53.36;98703.28;5125625;28;20027;-72
2023/03/28 07:38:34;;;;;;;6.05;5.55;;;;;;;4.91;54.13;98716.91;5128652;27;20497;-75
2023/03/28 07:41:00;;;;;;;7.60;6.82;;;;;;;5.07;53.11;98730.38;5127680;28;20050;-75
2023/03/28 07:43:25;;;;;;;7.75;6.90;;;;;;;5.27;53.39;98719.88;5125262;28;20049;-76
2023/03/28 07:45:52;;;;;;;7.07;6.25;;;;;;;5.42;52.86;98727.78;5126483;27;20031;-75
2023/03/28 07:48:21;;;;;;;6.80;6.07;;;;;;;5.59;52.65;98720.69;5121551;28;20039;-76
2023/03/28 07:50:46;;;;;;;7.18;6.05;;;;;;;5.73;51.39;98723.34;5127038;28;20019;-78
2023/03/28 07:53:11;;;;;;;7.80;5.13;;;;;;;5.65;52.40;98705.53;5129158;27;20401;-78
2023/03/28 07:55:37;;;;;;;8.15;6.47;;;;;;;5.68;51.73;98721.56;5123567;27;20113;-75
2023/03/28 07:58:07;;;;;;;9.13;6.28;;;;;;;5.74;50.71;98728.59;5126315;28;20046;-81
2023/03/28 08:00:33;;;;;;;6.40;5.80;;;;;;;6.00;53.45;98716.75;5129181;28;20039;-83
2023/03/28 08:02:58;;;;;;;13.55;5.85;;;;;;;5.97;51.65;98725.72;5130001;27;20035;-75
2023/03/28 08:05:25;;;;;;;8.07;6.25;;;;;;;5.73;50.72;98723.34;5130371;27;20030;-82
2023/03/28 08:07:51;;;;;;;6.72;5.55;;;;;;;5.54;51.33;98737.47;5131305;27;20054;-83
2023/03/28 08:10:16;;;;;;;12.55;5.85;;;;;;;5.37;50.19;98771.47;5129728;28;20126;-83
2023/03/28 08:12:42;;;;;;;6.50;5.47;;;;;;;5.31;50.34;98751.41;5130538;27;20019;-82
2023/03/28 08:15:08;;;;;;;6.20;5.43;;;;;;;5.41;48.25;98733.66;5129086;27;20524;-73
2023/03/28 08:17:33;;;;;;;7.00;5.72;;;;;;;5.42;49.10;98741.66;5129259;27;20080;-72
2023/03/28 08:19:59;;;;;;;8.05;6.45;;;;;;;5.58;49.88;98747.59;5131054;27;20069;-76
2023/03/28 08:22:25;;;;;;;9.77;5.45;;;;;;;5.66;50.14;98742.44;5131093;27;20110;-73
2023/03/28 08:24:51;;;;;;;7.90;6.68;;;;;;;5.68;49.87;98749.31;5131594;27;20431;-73
2023/03/28 08:27:17;;;;;;;7.78;5.38;;;;;;;6.04;50.63;98753.03;5132876;27;20059;-72
2023/03/28 08:29:42;;;;;;;6.20;5.50;;;;;;;6.32;48.54;98733.31;5124871;27;20473;-73
2023/03/28 08:32:08;;;;;;;7.30;5.60;;;;;;;6.66;49.81;98758.72;5112156;27;20030;-73
2023/03/28 08:34:34;;;;;;;9.30;6.55;;;;;;;6.80;50.32;98736.28;5129952;27;20035;-73
2023/03/28 08:37:00;;;;;;;12.30;5.63;;;;;;;6.86;49.79;98768.34;5132766;27;20196;-73
2023/03/28 08:39:26;;;;;;;10.45;6.32;;;;;;;6.76;49.64;98752.81;5132546;27;20035;-75
2023/03/28 08:41:51;;;;;;;8.18;6.20;;;;;;;6.75;49.79;98767.84;5131379;27;20070;-74
2023/03/28 08:44:54;;;;;;;10.68;5.95;;;;;;;6.75;50.13;98765.06;5124178;27;20147;-75
2023/03/28 08:47:29;;;;;;;8.50;4.90;;;;;;;6.49;48.55;98771.41;5127922;27;20028;-74
2023/03/28 08:50:19;;;;;;;8.02;7.07;;;;;;;6.46;49.39;98797.91;5118009;27;20056;-77
2023/03/28 08:52:45;;;;;;;12.05;6.72;;;;;;;6.31;49.12;98771.41;5125085;27;20044;-75
2023/03/28 08:55:34;;;;;;;6.82;6.15;;;;;;;6.42;48.39;98776.66;5131949;27;20405;-74
2023/03/28 08:58:00;;;;;;;12.15;5.85;;;;;;;6.48;47.23;98774.53;5130853;27;20031;-73
2023/03/28 09:00:37;;;;;;;8.85;5.63;;;;;;;6.22;48.28;98784.44;5131144;27;20038;-73
2023/03/28 09:03:12;;;;;;;11.48;6.03;;;;;;;6.19;48.78;98787.88;5127134;27;20030;-73
2023/03/28 09:05:59;;;;;;;4.90;4.40;;;;;;;5.98;47.11;98804.28;5120731;27;20016;-73
2023/03/28 09:09:22;;;;;;;7.68;5.15;;;;;;;6.40;49.58;98784.50;5130777;27;20028;-73
2023/03/28 09:11:53;;;;;;;5.53;4.57;;;;;;;6.41;47.22;98791.69;5068227;28;20655;-74
2023/03/28 09:14:42;;;;;;;7.78;4.57;;;;;;;6.29;47.59;98772.88;5068164;28;20108;-73
2023/03/28 09:17:14;;;;;;;7.90;5.00;;;;;;;6.77;49.43;98770.31;5110487;27;20128;-73
2023/03/28 09:19:54;;;;;;;7.50;4.75;;;;;;;7.08;46.23;98767.34;5131641;27;20553;-73
2023/03/28 09:22:35;;;;;;;10.88;5.03;;;;;;;7.20;45.81;98751.94;5130024;27;20027;-74
2023/03/28 09:25:11;;;;;;;12.23;4.25;;;;;;;7.12;45.67;98746.09;5124867;27;20038;-73
2023/03/28 09:27:58;;;;;;;8.23;3.88;;;;;;;6.86;45.76;98777.50;5130743;27;20071;-73
2023/03/28 09:30:33;;;;;;;5.13;3.95;;;;;;;6.48;45.41;98772.56;5130540;27;20026;-74
2023/03/28 09:33:04;;;;;;;4.20;3.80;;;;;;;6.45;46.07;98776.00;5131112;27;20034;-73
2023/03/28 09:35:33;;;;;;;7.55;4.82;;;;;;;6.31;46.10;98793.63;5131721;27;20031;-74
2023/03/28 09:38:08;;;;;;;8.23;5.57;;;;;;;6.29;45.90;98795.91;5131488;27;20611;-73
2023/03/28 09:40:35;;;;;;;12.02;5.30;;;;;;;6.49;45.78;98790.06;5130139;27;20546;-74
2023/03/28 09:43:03;;;;;;;9.73;5.40;;;;;;;6.42;46.85;98801.66;5130366;27;20122;-74
2023/03/28 09:45:35;;;;;;;6.32;5.18;;;;;;;6.55;46.50;98822.09;5130071;27;20031;-75
2023/03/28 09:48:04;;;;;;;5.68;4.60;;;;;;;6.31;45.67;98817.78;5130612;27;20090;-75
2023/03/28 09:50:30;;;;;;;7.90;4.63;;;;;;;6.34;47.09;98822.72;5130015;27;20027;-73
2023/03/28 09:52:56;;;;;;;4.85;4.43;;;;;;;6.49;47.17;98838.09;5127987;27;20031;-74
2023/03/28 09:55:26;;;;;;;5.75;4.72;;;;;;;6.91;44.64;98845.22;5128069;27;20366;-74
2023/03/28 09:58:09;;;;;;;5.55;4.47;;;;;;;7.30;44.00;98848.97;5127630;27;20060;-74
2023/03/28 10:00:56;;;;;;;6.22;4.50;;;;;;;7.64;44.78;98852.03;5136839;27;20030;-73
2023/03/28 10:03:28;;;;;;;3.85;3.25;;;;;;;7.64;39.71;98852.88;5133892;27;20080;-73
2023/03/28 10:06:32;;;;;;;7.85;3.90;;;;;;;7.73;41.40;98842.53;5129217;27;20179;-73
2023/03/28 10:09:15;;;;;;;4.53;3.28;;;;;;;7.11;39.33;98841.78;5132753;27;20586;-73
2023/03/28 10:11:49;;;;;;;5.38;3.72;;;;;;;7.08;40.18;98822.97;5134402;27;20501;-74
2023/03/28 10:14:40;;;;;;;4.22;3.58;;;;;;;7.51;39.91;98837.97;5130381;27;20038;-73
2023/03/28 10:17:11;;;;;;;4.97;3.97;;;;;;;7.55;39.20;98836.19;5115479;28;20413;-73
2023/03/28 10:19:41;;;;;;;8.10;3.38;;;;;;;7.83;39.67;98854.44;5119893;27;20041;-74
2023/03/28 10:22:19;;;;;;;5.45;4.53;;;;;;;7.56;39.27;98846.19;5137287;27;20022;-74
2023/03/28 10:24:47;;;;;;;4.97;3.80;;;;;;;7.51;38.81;98887.28;5116500;27;20046;-73
2023/03/28 10:27:31;;;;;;;4.43;3.38;;;;;;;7.37;38.74;98871.56;5123997;27;20031;-70
2023/03/28 10:30:07;;;;;;;5.20;3.50;;;;;;;7.81;38.51;98873.47;5124187;27;20110;-74
2023/03/28 10:32:32;;;;;;;12.88;5.00;;;;;;;7.76;39.75;98879.22;5127335;27;20019;-71
2023/03/28 10:35:04;;;;;;;5.47;4.10;;;;;;;7.80;38.79;98886.56;5127879;27;20035;-74
2023/03/28 10:37:31;;;;;;;7.72;4.30;;;;;;;7.80;39.12;98878.22;5127251;27;20061;-71
2023/03/28 10:39:59;;;;;;;8.10;5.40;;;;;;;7.72;40.27;98885.44;5126098;27;20031;-71
2023/03/28 10:42:24;;;;;;;5.57;4.75;;;;;;;7.53;38.50;98873.84;5132456;27;20500;-71
2023/03/28 10:45:01;;;;;;;6.15;4.47;;;;;;;7.83;39.10;98874.78;5130639;27;20050;-72
2023/03/28 10:47:28;;;;;;;7.20;4.70;;;;;;;7.90;38.25;98882.63;5129090;27;20507;-72
2023/03/28 10:49:55;;;;;;;8.48;5.40;;;;;;;7.80;37.79;98892.16;5131444;27;20027;-72
2023/03/28 10:52:45;;;;;;;6.68;4.70;;;;;;;7.83;38.00;98880.34;5131374;27;20076;-72
2023/03/28 10:55:22;;;;;;;5.30;4.80;;;;;;;8.00;37.89;98881.44;5123204;27;20023;-78
2023/03/28 10:57:53;;;;;;;4.90;4.40;;;;;;;7.98;37.40;98879.00;5121948;27;20049;-74
2023/03/28 11:00:44;;;;;;;6.10;3.50;;;;;;;7.77;36.96;98872.50;5115846;27;20553;-72
2023/03/28 11:03:25;;;;;;;4.63;4.20;;;;;;;8.00;37.66;98900.94;5120297;27;20050;-78
2023/03/28 11:05:56;;;;;;;6.82;3.97;;;;;;;7.51;36.21;98876.13;5118578;27;20023;-74
2023/03/28 11:08:31;;;;;;;4.80;4.13;;;;;;;7.61;36.74;98908.38;5108794;28;20124;-81
2023/03/28 11:11:36;;;;;;;5.75;4.55;;;;;;;7.43;37.25;98920.31;5117496;27;20027;-75
2023/03/28 11:14:11;;;;;;;7.03;4.70;;;;;;;7.33;37.21;98920.66;5111630;27;20024;-72
2023/03/28 11:16:43;;;;;;;4.97;4.40;;;;;;;7.51;37.44;98912.31;5108244;28;20111;-73
2023/03/28 11:19:11;;;;;;;6.00;4.35;;;;;;;7.42;37.17;98929.81;5107635;28;20023;-73
2023/03/28 11:21:42;;;;;;;4.82;4.28;;;;;;;7.45;36.92;98909.69;5112689;27;20402;-79
2023/03/28 11:24:45;;;;;;;5.72;4.90;;;;;;;7.99;38.55;98911.25;5112462;27;20555;-74
2023/03/28 11:27:32;;;;;;;4.60;3.80;;;;;;;7.87;35.14;98903.56;5116182;28;20151;-73
2023/03/28 11:30:08;;;;;;;5.07;4.03;;;;;;;8.20;36.49;98896.59;5117547;27;20508;-75
2023/03/28 11:33:13;;;;;;;4.57;3.78;;;;;;;7.98;35.38;98906.00;5118968;27;20080;-74
2023/03/28 11:35:51;;;;;;;4.45;4.05;;;;;;;7.52;34.33;98920.31;5127390;28;20058;-74
2023/03/28 11:38:28;;;;;;;6.10;4.82;;;;;;;7.73;36.06;98941.94;5120206;28;20108;-73
2023/03/28 11:41:17;;;;;;;6.80;4.00;;;;;;;7.30;34.37;98910.19;5119316;28;20491;-74
2023/03/28 11:43:57;;;;;;;6.30;4.47;;;;;;;7.41;35.84;98917.06;5120989;28;20035;-73
2023/03/28 11:46:48;;;;;;;5.70;4.32;;;;;;;7.09;35.29;98919.16;5122700;28;20023;-73
2023/03/28 11:49:32;;;;;;;8.35;5.03;;;;;;;6.98;37.49;98951.19;5130924;27;20027;-73
2023/03/28 11:52:21;;;;;;;6.10;4.30;;;;;;;6.68;37.17;98932.31;5132305;27;20023;-73
2023/03/28 11:55:19;;;;;;;4.93;4.43;;;;;;;6.55;36.76;98953.53;5119921;27;20687;-73
2023/03/28 11:58:00;;;;;;;6.18;3.97;;;;;;;6.41;37.11;98959.19;5123346;27;20031;-74
2023/03/28 12:00:40;;;;;;;7.55;5.65;;;;;;;6.56;38.23;98951.56;5126390;27;20028;-73
2023/03/28 12:03:27;;;;;;;8.25;4.72;;;;;;;6.67;38.54;98944.56;5120383;27;20106;-74